Wolcott, Indiana
Current Conditions -  °F | °C
As of 6:55 PM on Thursday 18 Dec 2014 (Local Time) from KMCX Reporting Station
Overcast Overcast  
Wind Chill: 26°   Ceiling: 2100
Heat Index: 26°   Visibility: 10mi
Dew Point: 21°   Wind: 3mph
Humidity: 81%   Direction: 310°NW
Pressure: 30.24"   Gusts: NA
Location:  40.76°N, 87.04°W
Report Text: KMCX 182355Z AUTO 31003KT 10SM OVC021 M03/M06 A3024 RMK AO2 T10321060 11027 21036
Loading
Personal Weather Stations






























Interactive Weather Map New forecast layout! Learn more

10-Day Weather Forecast

Advertisements
Track Severe Weather on mobile